sensor_id;sensor_type;location;lat;lon;timestamp;temperature;humidity
14993;DHT22;7592;51.088;13.732;2022-08-21T00:03:56;19.30;99.90
14993;DHT22;7592;51.088;13.732;2022-08-21T00:08:51;19.30;99.90
14993;DHT22;7592;51.088;13.732;2022-08-21T00:13:43;19.30;99.90
14993;DHT22;7592;51.088;13.732;2022-08-21T00:18:36;19.30;99.90
14993;DHT22;7592;51.088;13.732;2022-08-21T00:23:33;19.30;99.90
14993;DHT22;7592;51.088;13.732;2022-08-21T00:28:26;19.20;99.90
14993;DHT22;7592;51.088;13.732;2022-08-21T00:33:18;19.20;99.90
14993;DHT22;7592;51.088;13.732;2022-08-21T00:38:11;19.20;99.90
14993;DHT22;7592;51.088;13.732;2022-08-21T00:43:05;19.20;99.90
14993;DHT22;7592;51.088;13.732;2022-08-21T00:47:58;19.20;99.90
14993;DHT22;7592;51.088;13.732;2022-08-21T00:52:52;19.20;99.90
14993;DHT22;7592;51.088;13.732;2022-08-21T00:57:47;19.20;99.90
14993;DHT22;7592;51.088;13.732;2022-08-21T01:02:42;19.20;99.90
14993;DHT22;7592;51.088;13.732;2022-08-21T01:07:35;19.20;99.90
14993;DHT22;7592;51.088;13.732;2022-08-21T01:12:27;19.20;99.90
14993;DHT22;7592;51.088;13.732;2022-08-21T01:17:21;19.20;99.90
14993;DHT22;7592;51.088;13.732;2022-08-21T01:22:14;19.20;99.90
14993;DHT22;7592;51.088;13.732;2022-08-21T01:27:06;19.10;99.90
14993;DHT22;7592;51.088;13.732;2022-08-21T01:32:03;19.00;99.90
14993;DHT22;7592;51.088;13.732;2022-08-21T01:36:56;18.80;99.90
14993;DHT22;7592;51.088;13.732;2022-08-21T01:41:48;18.80;99.90
14993;DHT22;7592;51.088;13.732;2022-08-21T01:46:40;18.80;99.90
14993;DHT22;7592;51.088;13.732;2022-08-21T01:51:33;18.90;99.90
14993;DHT22;7592;51.088;13.732;2022-08-21T01:56:25;18.80;99.90
14993;DHT22;7592;51.088;13.732;2022-08-21T02:01:19;18.80;99.90
14993;DHT22;7592;51.088;13.732;2022-08-21T02:06:15;18.80;99.90
14993;DHT22;7592;51.088;13.732;2022-08-21T02:11:09;18.80;99.90
14993;DHT22;7592;51.088;13.732;2022-08-21T02:16:02;18.80;99.90
14993;DHT22;7592;51.088;13.732;2022-08-21T02:20:54;18.70;99.90
14993;DHT22;7592;51.088;13.732;2022-08-21T02:25:48;18.70;99.90
14993;DHT22;7592;51.088;13.732;2022-08-21T02:30:45;18.70;99.90
14993;DHT22;7592;51.088;13.732;2022-08-21T02:35:40;18.60;99.90
14993;DHT22;7592;51.088;13.732;2022-08-21T02:40:37;18.60;99.90
14993;DHT22;7592;51.088;13.732;2022-08-21T02:45:36;18.60;99.90
14993;DHT22;7592;51.088;13.732;2022-08-21T02:50:38;18.60;99.90
14993;DHT22;7592;51.088;13.732;2022-08-21T02:55:32;18.70;99.90
14993;DHT22;7592;51.088;13.732;2022-08-21T03:00:26;18.80;99.90
14993;DHT22;7592;51.088;13.732;2022-08-21T03:05:19;18.80;99.90
14993;DHT22;7592;51.088;13.732;2022-08-21T03:10:11;18.80;99.90
14993;DHT22;7592;51.088;13.732;2022-08-21T03:15:05;18.80;99.90
14993;DHT22;7592;51.088;13.732;2022-08-21T03:19:58;18.90;99.90
14993;DHT22;7592;51.088;13.732;2022-08-21T03:24:51;18.80;99.90
14993;DHT22;7592;51.088;13.732;2022-08-21T03:29:43;18.80;99.90
14993;DHT22;7592;51.088;13.732;2022-08-21T03:34:40;18.80;99.90
14993;DHT22;7592;51.088;13.732;2022-08-21T03:39:32;18.70;99.90
14993;DHT22;7592;51.088;13.732;2022-08-21T03:44:24;18.80;99.90
14993;DHT22;7592;51.088;13.732;2022-08-21T03:49:17;18.70;99.90
14993;DHT22;7592;51.088;13.732;2022-08-21T03:54:09;18.60;99.90
14993;DHT22;7592;51.088;13.732;2022-08-21T03:59:02;18.60;99.90
14993;DHT22;7592;51.088;13.732;2022-08-21T04:03:55;18.60;99.90
14993;DHT22;7592;51.088;13.732;2022-08-21T04:08:47;18.50;99.90
14993;DHT22;7592;51.088;13.732;2022-08-21T04:13:40;18.60;99.90
14993;DHT22;7592;51.088;13.732;2022-08-21T04:18:35;18.60;99.90
14993;DHT22;7592;51.088;13.732;2022-08-21T04:23:27;18.50;99.90
14993;DHT22;7592;51.088;13.732;2022-08-21T04:28:21;18.50;99.90
14993;DHT22;7592;51.088;13.732;2022-08-21T04:33:20;18.50;99.90
14993;DHT22;7592;51.088;13.732;2022-08-21T04:38:13;18.50;99.90
14993;DHT22;7592;51.088;13.732;2022-08-21T04:43:07;18.50;99.90
14993;DHT22;7592;51.088;13.732;2022-08-21T04:48:03;18.60;99.90
14993;DHT22;7592;51.088;13.732;2022-08-21T04:53:01;18.60;99.90
14993;DHT22;7592;51.088;13.732;2022-08-21T04:57:55;18.70;99.90
14993;DHT22;7592;51.088;13.732;2022-08-21T05:02:48;18.80;99.90
14993;DHT22;7592;51.088;13.732;2022-08-21T05:07:42;18.90;99.90
14993;DHT22;7592;51.088;13.732;2022-08-21T05:12:37;19.10;99.90
14993;DHT22;7592;51.088;13.732;2022-08-21T05:17:29;19.10;99.90
14993;DHT22;7592;51.088;13.732;2022-08-21T05:22:23;19.20;99.90
14993;DHT22;7592;51.088;13.732;2022-08-21T05:27:17;19.20;99.90
14993;DHT22;7592;51.088;13.732;2022-08-21T05:32:12;19.40;99.90
14993;DHT22;7592;51.088;13.732;2022-08-21T05:37:05;19.60;99.90
14993;DHT22;7592;51.088;13.732;2022-08-21T05:41:58;19.80;99.90
14993;DHT22;7592;51.088;13.732;2022-08-21T05:46:51;19.90;99.90
14993;DHT22;7592;51.088;13.732;2022-08-21T05:51:43;19.90;99.90
14993;DHT22;7592;51.088;13.732;2022-08-21T05:56:36;19.90;99.90
14993;DHT22;7592;51.088;13.732;2022-08-21T06:01:29;19.90;99.90
14993;DHT22;7592;51.088;13.732;2022-08-21T06:06:22;20.30;99.90
14993;DHT22;7592;51.088;13.732;2022-08-21T06:11:14;20.60;99.90
14993;DHT22;7592;51.088;13.732;2022-08-21T06:16:15;20.80;99.90
14993;DHT22;7592;51.088;13.732;2022-08-21T06:21:08;20.90;99.90
14993;DHT22;7592;51.088;13.732;2022-08-21T06:26:02;21.10;99.90
14993;DHT22;7592;51.088;13.732;2022-08-21T06:30:55;21.30;99.90
14993;DHT22;7592;51.088;13.732;2022-08-21T06:35:47;21.40;99.90
14993;DHT22;7592;51.088;13.732;2022-08-21T06:40:40;21.70;99.90
14993;DHT22;7592;51.088;13.732;2022-08-21T06:45:38;21.90;99.90
14993;DHT22;7592;51.088;13.732;2022-08-21T06:50:31;22.10;99.90
14993;DHT22;7592;51.088;13.732;2022-08-21T06:55:23;22.40;99.90
14993;DHT22;7592;51.088;13.732;2022-08-21T07:00:20;22.70;99.90
14993;DHT22;7592;51.088;13.732;2022-08-21T07:05:13;22.90;99.90
14993;DHT22;7592;51.088;13.732;2022-08-21T07:10:09;22.90;99.90
14993;DHT22;7592;51.088;13.732;2022-08-21T07:15:13;22.90;99.90
14993;DHT22;7592;51.088;13.732;2022-08-21T07:20:06;22.90;99.90
14993;DHT22;7592;51.088;13.732;2022-08-21T07:24:58;23.20;99.90
14993;DHT22;7592;51.088;13.732;2022-08-21T07:29:50;23.50;99.90
14993;DHT22;7592;51.088;13.732;2022-08-21T07:34:43;23.40;99.90
14993;DHT22;7592;51.088;13.732;2022-08-21T07:39:35;23.40;99.90
14993;DHT22;7592;51.088;13.732;2022-08-21T07:44:28;23.70;99.90
14993;DHT22;7592;51.088;13.732;2022-08-21T07:49:20;23.80;99.90
14993;DHT22;7592;51.088;13.732;2022-08-21T07:54:12;23.80;99.90
14993;DHT22;7592;51.088;13.732;2022-08-21T07:59:08;23.50;99.90
14993;DHT22;7592;51.088;13.732;2022-08-21T08:04:00;23.60;99.90
14993;DHT22;7592;51.088;13.732;2022-08-21T08:08:52;23.70;99.90
14993;DHT22;7592;51.088;13.732;2022-08-21T08:13:48;23.60;99.90
14993;DHT22;7592;51.088;13.732;2022-08-21T08:18:40;23.70;99.90
14993;DHT22;7592;51.088;13.732;2022-08-21T08:23:34;23.70;99.90
14993;DHT22;7592;51.088;13.732;2022-08-21T08:28:27;23.80;99.90
14993;DHT22;7592;51.088;13.732;2022-08-21T08:33:19;24.00;99.90
14993;DHT22;7592;51.088;13.732;2022-08-21T08:38:11;24.40;99.90
14993;DHT22;7592;51.088;13.732;2022-08-21T08:43:04;25.00;99.90
14993;DHT22;7592;51.088;13.732;2022-08-21T08:48:03;25.60;99.90
14993;DHT22;7592;51.088;13.732;2022-08-21T08:53:10;25.80;99.90
14993;DHT22;7592;51.088;13.732;2022-08-21T08:58:04;25.90;99.90
14993;DHT22;7592;51.088;13.732;2022-08-21T09:03:00;26.10;99.90
14993;DHT22;7592;51.088;13.732;2022-08-21T09:13:24;26.30;99.90
14993;DHT22;7592;51.088;13.732;2022-08-21T09:23:52;26.10;99.90
14993;DHT22;7592;51.088;13.732;2022-08-21T09:28:59;26.10;99.90
14993;DHT22;7592;51.088;13.732;2022-08-21T09:34:04;25.90;99.90
14993;DHT22;7592;51.088;13.732;2022-08-21T09:38:57;26.00;99.90
14993;DHT22;7592;51.088;13.732;2022-08-21T09:43:53;26.40;99.90
14993;DHT22;7592;51.088;13.732;2022-08-21T09:48:52;26.30;99.90
14993;DHT22;7592;51.088;13.732;2022-08-21T09:53:52;26.50;99.90
14993;DHT22;7592;51.088;13.732;2022-08-21T09:58:47;26.40;99.90
14993;DHT22;7592;51.088;13.732;2022-08-21T10:03:41;26.10;99.90
14993;DHT22;7592;51.088;13.732;2022-08-21T10:08:34;26.30;99.90
14993;DHT22;7592;51.088;13.732;2022-08-21T10:13:53;26.30;99.90
14993;DHT22;7592;51.088;13.732;2022-08-21T10:19:05;26.00;99.90
14993;DHT22;7592;51.088;13.732;2022-08-21T10:24:06;26.20;99.90
14993;DHT22;7592;51.088;13.732;2022-08-21T10:30:19;26.40;99.90
14993;DHT22;7592;51.088;13.732;2022-08-21T10:35:24;26.60;99.90
14993;DHT22;7592;51.088;13.732;2022-08-21T10:40:28;27.10;99.90
14993;DHT22;7592;51.088;13.732;2022-08-21T10:51:17;27.70;99.90
14993;DHT22;7592;51.088;13.732;2022-08-21T10:56:32;27.60;99.90
14993;DHT22;7592;51.088;13.732;2022-08-21T11:06:32;27.70;99.90
14993;DHT22;7592;51.088;13.732;2022-08-21T11:17:13;27.70;99.90
14993;DHT22;7592;51.088;13.732;2022-08-21T11:22:28;28.20;99.90
14993;DHT22;7592;51.088;13.732;2022-08-21T11:54:28;30.90;90.40
14993;DHT22;7592;51.088;13.732;2022-08-21T14:02:20;25.80;93.60
14993;DHT22;7592;51.088;13.732;2022-08-21T14:07:24;25.80;94.60
14993;DHT22;7592;51.088;13.732;2022-08-21T14:12:33;25.90;94.80
14993;DHT22;7592;51.088;13.732;2022-08-21T14:17:33;25.70;93.90
14993;DHT22;7592;51.088;13.732;2022-08-21T14:22:42;25.50;94.30
14993;DHT22;7592;51.088;13.732;2022-08-21T14:28:24;25.40;93.70
14993;DHT22;7592;51.088;13.732;2022-08-21T14:32:51;25.40;94.10
14993;DHT22;7592;51.088;13.732;2022-08-21T14:37:44;25.70;94.40
14993;DHT22;7592;51.088;13.732;2022-08-21T14:42:41;25.70;93.90
14993;DHT22;7592;51.088;13.732;2022-08-21T14:47:33;25.80;94.80
14993;DHT22;7592;51.088;13.732;2022-08-21T14:52:26;25.80;92.90
14993;DHT22;7592;51.088;13.732;2022-08-21T14:57:18;25.70;92.20
14993;DHT22;7592;51.088;13.732;2022-08-21T15:02:10;25.60;93.10
14993;DHT22;7592;51.088;13.732;2022-08-21T15:07:03;25.60;93.40
14993;DHT22;7592;51.088;13.732;2022-08-21T15:11:58;25.50;94.00
14993;DHT22;7592;51.088;13.732;2022-08-21T15:16:53;25.40;93.40
14993;DHT22;7592;51.088;13.732;2022-08-21T15:21:47;25.20;93.40
14993;DHT22;7592;51.088;13.732;2022-08-21T15:26:41;24.90;93.20
14993;DHT22;7592;51.088;13.732;2022-08-21T15:31:35;24.70;93.50
14993;DHT22;7592;51.088;13.732;2022-08-21T15:36:28;24.50;93.60
14993;DHT22;7592;51.088;13.732;2022-08-21T15:41:20;24.50;94.10
14993;DHT22;7592;51.088;13.732;2022-08-21T15:46:14;24.50;95.60
14993;DHT22;7592;51.088;13.732;2022-08-21T15:51:09;24.40;94.50
14993;DHT22;7592;51.088;13.732;2022-08-21T15:56:02;24.50;95.60
14993;DHT22;7592;51.088;13.732;2022-08-21T16:00:59;24.60;95.60
14993;DHT22;7592;51.088;13.732;2022-08-21T16:05:52;24.50;94.50
14993;DHT22;7592;51.088;13.732;2022-08-21T16:10:47;24.20;96.30
14993;DHT22;7592;51.088;13.732;2022-08-21T16:15:40;23.90;97.60
14993;DHT22;7592;51.088;13.732;2022-08-21T16:20:32;23.50;97.20
14993;DHT22;7592;51.088;13.732;2022-08-21T16:25:25;23.20;99.60
14993;DHT22;7592;51.088;13.732;2022-08-21T16:30:19;22.90;99.90
14993;DHT22;7592;51.088;13.732;2022-08-21T16:35:14;22.50;99.90
14993;DHT22;7592;51.088;13.732;2022-08-21T16:40:09;22.30;99.90
14993;DHT22;7592;51.088;13.732;2022-08-21T16:45:04;22.00;99.90
14993;DHT22;7592;51.088;13.732;2022-08-21T16:49:57;21.80;99.90
14993;DHT22;7592;51.088;13.732;2022-08-21T16:54:49;21.60;99.90
14993;DHT22;7592;51.088;13.732;2022-08-21T16:59:41;21.50;99.90
14993;DHT22;7592;51.088;13.732;2022-08-21T17:04:34;21.30;99.90
14993;DHT22;7592;51.088;13.732;2022-08-21T17:09:26;21.20;99.90
14993;DHT22;7592;51.088;13.732;2022-08-21T17:14:22;21.20;99.90
14993;DHT22;7592;51.088;13.732;2022-08-21T17:19:14;21.10;99.90
14993;DHT22;7592;51.088;13.732;2022-08-21T17:24:07;21.00;99.90
14993;DHT22;7592;51.088;13.732;2022-08-21T17:29:03;21.00;99.90
14993;DHT22;7592;51.088;13.732;2022-08-21T17:34:00;20.90;99.90
14993;DHT22;7592;51.088;13.732;2022-08-21T17:38:54;20.80;99.90
14993;DHT22;7592;51.088;13.732;2022-08-21T17:43:46;20.70;99.90
14993;DHT22;7592;51.088;13.732;2022-08-21T17:48:39;20.50;99.90
14993;DHT22;7592;51.088;13.732;2022-08-21T17:53:38;20.40;99.90
14993;DHT22;7592;51.088;13.732;2022-08-21T17:58:31;20.20;99.90
14993;DHT22;7592;51.088;13.732;2022-08-21T20:06:22;16.90;99.90
14993;DHT22;7592;51.088;13.732;2022-08-21T20:11:19;16.80;99.90
14993;DHT22;7592;51.088;13.732;2022-08-21T20:16:13;16.60;99.90
14993;DHT22;7592;51.088;13.732;2022-08-21T20:21:06;16.50;99.90
14993;DHT22;7592;51.088;13.732;2022-08-21T20:26:01;16.50;99.90
14993;DHT22;7592;51.088;13.732;2022-08-21T20:30:57;16.40;99.90
14993;DHT22;7592;51.088;13.732;2022-08-21T20:35:50;16.40;99.90
14993;DHT22;7592;51.088;13.732;2022-08-21T20:40:44;16.30;99.90
14993;DHT22;7592;51.088;13.732;2022-08-21T22:42:33;15.20;99.90
14993;DHT22;7592;51.088;13.732;2022-08-21T22:47:32;15.10;99.90
14993;DHT22;7592;51.088;13.732;2022-08-21T22:52:35;15.10;99.90
14993;DHT22;7592;51.088;13.732;2022-08-21T22:57:31;15.00;99.90
14993;DHT22;7592;51.088;13.732;2022-08-21T23:07:40;15.00;99.90
14993;DHT22;7592;51.088;13.732;2022-08-21T23:12:37;14.90;99.90
14993;DHT22;7592;51.088;13.732;2022-08-21T23:44:16;14.70;99.90
